sensor_id;sensor_type;location;lat;lon;timestamp;P1;durP1;ratioP1;P2;durP2;ratioP2
38226;SDS011;24026;49.446;8.576;2022-07-23T00:00:55;159.95;;;147.45;;
38226;SDS011;24026;49.446;8.576;2022-07-23T00:03:15;158.38;;;146.07;;
38226;SDS011;24026;49.446;8.576;2022-07-23T00:05:36;158.60;;;146.38;;
38226;SDS011;24026;49.446;8.576;2022-07-23T00:07:56;158.10;;;145.77;;
38226;SDS011;24026;49.446;8.576;2022-07-23T00:10:17;158.35;;;146.13;;
38226;SDS011;24026;49.446;8.576;2022-07-23T00:12:37;159.13;;;146.73;;
38226;SDS011;24026;49.446;8.576;2022-07-23T00:14:58;157.40;;;145.07;;
38226;SDS011;24026;49.446;8.576;2022-07-23T00:17:19;156.82;;;144.63;;
38226;SDS011;24026;49.446;8.576;2022-07-23T00:19:40;157.90;;;145.50;;
38226;SDS011;24026;49.446;8.576;2022-07-23T00:22:00;157.95;;;145.68;;
38226;SDS011;24026;49.446;8.576;2022-07-23T00:24:21;158.40;;;146.02;;
38226;SDS011;24026;49.446;8.576;2022-07-23T00:26:41;158.05;;;145.85;;
38226;SDS011;24026;49.446;8.576;2022-07-23T00:29:02;156.90;;;144.70;;
38226;SDS011;24026;49.446;8.576;2022-07-23T00:31:22;157.52;;;145.27;;
38226;SDS011;24026;49.446;8.576;2022-07-23T00:33:42;155.52;;;143.18;;
38226;SDS011;24026;49.446;8.576;2022-07-23T00:36:03;158.40;;;146.07;;
38226;SDS011;24026;49.446;8.576;2022-07-23T00:38:24;160.52;;;148.07;;
38226;SDS011;24026;49.446;8.576;2022-07-23T00:40:44;158.15;;;145.90;;
38226;SDS011;24026;49.446;8.576;2022-07-23T00:43:04;157.75;;;145.35;;
38226;SDS011;24026;49.446;8.576;2022-07-23T00:45:26;156.90;;;144.75;;
38226;SDS011;24026;49.446;8.576;2022-07-23T00:47:47;157.38;;;145.18;;
38226;SDS011;24026;49.446;8.576;2022-07-23T00:50:08;156.10;;;143.88;;
38226;SDS011;24026;49.446;8.576;2022-07-23T00:52:29;158.45;;;146.05;;
38226;SDS011;24026;49.446;8.576;2022-07-23T00:54:51;156.07;;;143.77;;
38226;SDS011;24026;49.446;8.576;2022-07-23T00:57:12;158.07;;;145.68;;
38226;SDS011;24026;49.446;8.576;2022-07-23T00:59:32;158.48;;;145.98;;
38226;SDS011;24026;49.446;8.576;2022-07-23T01:01:53;156.15;;;143.85;;
38226;SDS011;24026;49.446;8.576;2022-07-23T01:04:13;156.73;;;144.52;;
38226;SDS011;24026;49.446;8.576;2022-07-23T01:06:35;157.38;;;144.98;;
38226;SDS011;24026;49.446;8.576;2022-07-23T01:08:57;157.73;;;145.45;;
38226;SDS011;24026;49.446;8.576;2022-07-23T01:11:18;155.75;;;143.63;;
38226;SDS011;24026;49.446;8.576;2022-07-23T01:13:42;155.18;;;143.18;;
38226;SDS011;24026;49.446;8.576;2022-07-23T01:16:03;156.57;;;144.40;;
38226;SDS011;24026;49.446;8.576;2022-07-23T01:18:24;154.55;;;142.52;;
38226;SDS011;24026;49.446;8.576;2022-07-23T01:20:44;156.55;;;144.32;;
38226;SDS011;24026;49.446;8.576;2022-07-23T01:23:05;156.65;;;144.38;;
38226;SDS011;24026;49.446;8.576;2022-07-23T01:25:25;157.43;;;145.18;;
38226;SDS011;24026;49.446;8.576;2022-07-23T01:27:46;156.15;;;143.98;;
38226;SDS011;24026;49.446;8.576;2022-07-23T01:30:08;155.55;;;143.40;;
38226;SDS011;24026;49.446;8.576;2022-07-23T01:32:28;156.95;;;144.73;;
38226;SDS011;24026;49.446;8.576;2022-07-23T01:34:49;155.57;;;143.48;;
38226;SDS011;24026;49.446;8.576;2022-07-23T01:37:10;157.13;;;144.82;;
38226;SDS011;24026;49.446;8.576;2022-07-23T01:39:30;154.82;;;142.65;;
38226;SDS011;24026;49.446;8.576;2022-07-23T01:41:50;155.00;;;142.82;;
38226;SDS011;24026;49.446;8.576;2022-07-23T01:44:11;154.90;;;142.82;;
38226;SDS011;24026;49.446;8.576;2022-07-23T01:46:31;154.23;;;142.15;;
38226;SDS011;24026;49.446;8.576;2022-07-23T01:48:52;155.20;;;143.13;;
38226;SDS011;24026;49.446;8.576;2022-07-23T01:51:12;156.70;;;144.55;;
38226;SDS011;24026;49.446;8.576;2022-07-23T01:53:33;156.35;;;144.05;;
38226;SDS011;24026;49.446;8.576;2022-07-23T01:55:53;156.30;;;144.10;;
38226;SDS011;24026;49.446;8.576;2022-07-23T01:58:14;155.20;;;142.95;;
38226;SDS011;24026;49.446;8.576;2022-07-23T02:00:35;156.93;;;144.68;;
38226;SDS011;24026;49.446;8.576;2022-07-23T02:02:55;155.90;;;143.60;;
38226;SDS011;24026;49.446;8.576;2022-07-23T02:05:18;156.48;;;144.27;;
38226;SDS011;24026;49.446;8.576;2022-07-23T02:07:38;156.85;;;144.55;;
38226;SDS011;24026;49.446;8.576;2022-07-23T02:09:58;155.25;;;143.13;;
38226;SDS011;24026;49.446;8.576;2022-07-23T02:12:19;156.52;;;144.32;;
38226;SDS011;24026;49.446;8.576;2022-07-23T02:14:39;154.57;;;142.32;;
38226;SDS011;24026;49.446;8.576;2022-07-23T02:17:00;152.55;;;140.60;;
38226;SDS011;24026;49.446;8.576;2022-07-23T02:19:20;156.93;;;144.52;;
38226;SDS011;24026;49.446;8.576;2022-07-23T02:21:41;153.77;;;141.65;;
38226;SDS011;24026;49.446;8.576;2022-07-23T02:24:01;155.95;;;143.82;;
38226;SDS011;24026;49.446;8.576;2022-07-23T02:26:21;156.15;;;143.95;;
38226;SDS011;24026;49.446;8.576;2022-07-23T02:28:42;154.82;;;142.65;;
38226;SDS011;24026;49.446;8.576;2022-07-23T02:31:02;156.63;;;144.48;;
38226;SDS011;24026;49.446;8.576;2022-07-23T02:33:23;155.00;;;142.82;;
38226;SDS011;24026;49.446;8.576;2022-07-23T02:35:44;156.40;;;144.10;;
38226;SDS011;24026;49.446;8.576;2022-07-23T02:38:04;154.73;;;142.65;;
38226;SDS011;24026;49.446;8.576;2022-07-23T02:40:24;154.82;;;142.60;;
38226;SDS011;24026;49.446;8.576;2022-07-23T02:42:45;155.48;;;143.32;;
38226;SDS011;24026;49.446;8.576;2022-07-23T02:45:06;153.88;;;141.88;;
38226;SDS011;24026;49.446;8.576;2022-07-23T02:47:27;155.05;;;142.95;;
38226;SDS011;24026;49.446;8.576;2022-07-23T02:49:47;153.55;;;141.52;;
38226;SDS011;24026;49.446;8.576;2022-07-23T02:52:08;156.40;;;144.23;;
38226;SDS011;24026;49.446;8.576;2022-07-23T02:54:30;154.82;;;142.63;;
38226;SDS011;24026;49.446;8.576;2022-07-23T02:56:50;156.40;;;144.10;;
38226;SDS011;24026;49.446;8.576;2022-07-23T02:59:11;153.27;;;141.23;;
38226;SDS011;24026;49.446;8.576;2022-07-23T03:01:31;154.85;;;142.75;;
38226;SDS011;24026;49.446;8.576;2022-07-23T03:03:52;150.60;;;138.75;;
38226;SDS011;24026;49.446;8.576;2022-07-23T03:06:12;152.25;;;140.30;;
38226;SDS011;24026;49.446;8.576;2022-07-23T03:08:33;155.18;;;143.07;;
38226;SDS011;24026;49.446;8.576;2022-07-23T03:10:54;154.35;;;142.30;;
38226;SDS011;24026;49.446;8.576;2022-07-23T03:13:14;152.63;;;140.70;;
38226;SDS011;24026;49.446;8.576;2022-07-23T03:15:35;155.07;;;142.95;;
38226;SDS011;24026;49.446;8.576;2022-07-23T03:17:55;152.68;;;140.65;;
38226;SDS011;24026;49.446;8.576;2022-07-23T03:20:15;155.15;;;143.02;;
38226;SDS011;24026;49.446;8.576;2022-07-23T03:22:36;154.43;;;142.25;;
38226;SDS011;24026;49.446;8.576;2022-07-23T03:24:56;155.85;;;143.65;;
38226;SDS011;24026;49.446;8.576;2022-07-23T03:27:17;154.73;;;142.70;;
38226;SDS011;24026;49.446;8.576;2022-07-23T03:29:37;153.00;;;140.95;;
38226;SDS011;24026;49.446;8.576;2022-07-23T03:31:58;152.50;;;140.50;;
38226;SDS011;24026;49.446;8.576;2022-07-23T03:34:18;153.38;;;141.43;;
38226;SDS011;24026;49.446;8.576;2022-07-23T03:36:39;155.27;;;143.07;;
38226;SDS011;24026;49.446;8.576;2022-07-23T03:39:00;152.07;;;140.10;;
38226;SDS011;24026;49.446;8.576;2022-07-23T03:41:20;153.10;;;141.10;;
38226;SDS011;24026;49.446;8.576;2022-07-23T03:43:41;152.82;;;140.90;;
38226;SDS011;24026;49.446;8.576;2022-07-23T03:46:01;154.15;;;141.95;;
38226;SDS011;24026;49.446;8.576;2022-07-23T03:48:21;152.13;;;140.20;;
38226;SDS011;24026;49.446;8.576;2022-07-23T03:50:42;150.88;;;138.88;;
38226;SDS011;24026;49.446;8.576;2022-07-23T03:53:02;153.73;;;141.57;;
38226;SDS011;24026;49.446;8.576;2022-07-23T03:55:23;156.65;;;144.45;;
38226;SDS011;24026;49.446;8.576;2022-07-23T03:57:43;152.07;;;140.07;;
38226;SDS011;24026;49.446;8.576;2022-07-23T04:00:04;148.55;;;136.65;;
38226;SDS011;24026;49.446;8.576;2022-07-23T04:02:27;153.00;;;141.02;;
38226;SDS011;24026;49.446;8.576;2022-07-23T04:04:48;152.18;;;140.18;;
38226;SDS011;24026;49.446;8.576;2022-07-23T04:07:08;152.68;;;140.63;;
38226;SDS011;24026;49.446;8.576;2022-07-23T04:09:29;152.77;;;140.77;;
38226;SDS011;24026;49.446;8.576;2022-07-23T04:11:49;149.60;;;137.75;;
38226;SDS011;24026;49.446;8.576;2022-07-23T04:14:10;152.00;;;140.07;;
38226;SDS011;24026;49.446;8.576;2022-07-23T04:16:30;152.88;;;140.77;;
38226;SDS011;24026;49.446;8.576;2022-07-23T04:18:51;152.00;;;140.07;;
38226;SDS011;24026;49.446;8.576;2022-07-23T04:21:11;152.40;;;140.30;;
38226;SDS011;24026;49.446;8.576;2022-07-23T04:23:32;153.55;;;141.43;;
38226;SDS011;24026;49.446;8.576;2022-07-23T04:25:52;151.43;;;139.45;;
38226;SDS011;24026;49.446;8.576;2022-07-23T04:28:12;153.18;;;141.18;;
38226;SDS011;24026;49.446;8.576;2022-07-23T04:30:33;153.70;;;141.63;;
38226;SDS011;24026;49.446;8.576;2022-07-23T04:32:53;151.55;;;139.60;;
38226;SDS011;24026;49.446;8.576;2022-07-23T04:35:14;153.43;;;141.43;;
38226;SDS011;24026;49.446;8.576;2022-07-23T04:37:34;151.30;;;139.40;;
38226;SDS011;24026;49.446;8.576;2022-07-23T04:39:55;151.98;;;140.07;;
38226;SDS011;24026;49.446;8.576;2022-07-23T04:42:15;150.85;;;138.90;;
38226;SDS011;24026;49.446;8.576;2022-07-23T04:44:35;152.55;;;140.48;;
38226;SDS011;24026;49.446;8.576;2022-07-23T04:46:56;151.65;;;139.45;;
38226;SDS011;24026;49.446;8.576;2022-07-23T04:49:16;153.02;;;141.02;;
38226;SDS011;24026;49.446;8.576;2022-07-23T04:51:37;154.07;;;142.00;;
38226;SDS011;24026;49.446;8.576;2022-07-23T04:53:57;150.98;;;139.10;;
38226;SDS011;24026;49.446;8.576;2022-07-23T04:56:18;152.30;;;140.40;;
38226;SDS011;24026;49.446;8.576;2022-07-23T04:58:38;152.00;;;140.10;;
38226;SDS011;24026;49.446;8.576;2022-07-23T05:00:59;151.10;;;139.13;;
38226;SDS011;24026;49.446;8.576;2022-07-23T05:03:19;152.02;;;139.98;;
38226;SDS011;24026;49.446;8.576;2022-07-23T05:05:40;149.07;;;137.25;;
38226;SDS011;24026;49.446;8.576;2022-07-23T05:08:00;152.23;;;140.20;;
38226;SDS011;24026;49.446;8.576;2022-07-23T05:10:20;149.85;;;138.00;;
38226;SDS011;24026;49.446;8.576;2022-07-23T05:12:41;152.32;;;140.38;;
38226;SDS011;24026;49.446;8.576;2022-07-23T05:15:01;152.75;;;140.75;;
38226;SDS011;24026;49.446;8.576;2022-07-23T05:17:22;151.75;;;139.80;;
38226;SDS011;24026;49.446;8.576;2022-07-23T05:19:42;152.27;;;140.20;;
38226;SDS011;24026;49.446;8.576;2022-07-23T05:22:03;151.10;;;139.10;;
38226;SDS011;24026;49.446;8.576;2022-07-23T05:24:23;153.60;;;141.40;;
38226;SDS011;24026;49.446;8.576;2022-07-23T05:26:44;150.52;;;138.63;;
38226;SDS011;24026;49.446;8.576;2022-07-23T05:29:04;152.40;;;140.35;;
38226;SDS011;24026;49.446;8.576;2022-07-23T05:31:25;149.75;;;137.85;;
38226;SDS011;24026;49.446;8.576;2022-07-23T05:33:45;149.35;;;137.50;;
38226;SDS011;24026;49.446;8.576;2022-07-23T05:36:06;151.50;;;139.55;;
38226;SDS011;24026;49.446;8.576;2022-07-23T05:38:26;153.90;;;141.82;;
38226;SDS011;24026;49.446;8.576;2022-07-23T05:40:47;152.30;;;140.27;;
38226;SDS011;24026;49.446;8.576;2022-07-23T05:43:07;151.50;;;139.60;;
38226;SDS011;24026;49.446;8.576;2022-07-23T05:45:28;151.13;;;139.20;;
38226;SDS011;24026;49.446;8.576;2022-07-23T05:47:49;152.82;;;140.80;;
38226;SDS011;24026;49.446;8.576;2022-07-23T05:50:11;153.35;;;141.18;;
38226;SDS011;24026;49.446;8.576;2022-07-23T05:52:32;151.45;;;139.13;;
38226;SDS011;24026;49.446;8.576;2022-07-23T05:54:52;152.43;;;140.43;;
38226;SDS011;24026;49.446;8.576;2022-07-23T05:57:12;152.73;;;140.63;;
38226;SDS011;24026;49.446;8.576;2022-07-23T05:59:33;151.32;;;139.40;;
38226;SDS011;24026;49.446;8.576;2022-07-23T06:01:53;152.55;;;140.43;;
38226;SDS011;24026;49.446;8.576;2022-07-23T06:04:14;152.95;;;140.85;;
38226;SDS011;24026;49.446;8.576;2022-07-23T06:06:34;152.70;;;140.68;;
38226;SDS011;24026;49.446;8.576;2022-07-23T06:08:55;151.98;;;139.98;;
38226;SDS011;24026;49.446;8.576;2022-07-23T06:11:15;152.32;;;140.32;;
38226;SDS011;24026;49.446;8.576;2022-07-23T06:13:35;150.98;;;138.98;;
38226;SDS011;24026;49.446;8.576;2022-07-23T06:15:56;149.52;;;137.63;;
38226;SDS011;24026;49.446;8.576;2022-07-23T06:18:16;152.93;;;140.93;;
38226;SDS011;24026;49.446;8.576;2022-07-23T06:20:37;152.55;;;140.52;;
38226;SDS011;24026;49.446;8.576;2022-07-23T06:22:57;150.73;;;138.75;;
38226;SDS011;24026;49.446;8.576;2022-07-23T06:25:17;151.10;;;139.20;;
38226;SDS011;24026;49.446;8.576;2022-07-23T06:27:40;151.57;;;139.63;;
38226;SDS011;24026;49.446;8.576;2022-07-23T06:30:00;153.27;;;141.20;;
38226;SDS011;24026;49.446;8.576;2022-07-23T06:32:21;150.43;;;138.52;;
38226;SDS011;24026;49.446;8.576;2022-07-23T06:34:41;153.07;;;140.98;;
38226;SDS011;24026;49.446;8.576;2022-07-23T06:37:02;152.40;;;140.30;;
38226;SDS011;24026;49.446;8.576;2022-07-23T06:39:22;152.75;;;140.70;;
38226;SDS011;24026;49.446;8.576;2022-07-23T06:41:43;149.85;;;137.82;;
38226;SDS011;24026;49.446;8.576;2022-07-23T06:44:03;153.63;;;141.48;;
38226;SDS011;24026;49.446;8.576;2022-07-23T06:46:23;152.93;;;140.73;;
38226;SDS011;24026;49.446;8.576;2022-07-23T06:48:45;152.18;;;140.10;;
38226;SDS011;24026;49.446;8.576;2022-07-23T06:51:05;149.90;;;138.02;;
38226;SDS011;24026;49.446;8.576;2022-07-23T06:53:25;151.55;;;139.57;;
38226;SDS011;24026;49.446;8.576;2022-07-23T06:55:46;152.18;;;140.15;;
38226;SDS011;24026;49.446;8.576;2022-07-23T06:58:06;151.63;;;139.63;;
38226;SDS011;24026;49.446;8.576;2022-07-23T07:00:29;152.68;;;140.57;;
38226;SDS011;24026;49.446;8.576;2022-07-23T07:02:51;154.02;;;141.88;;
38226;SDS011;24026;49.446;8.576;2022-07-23T07:05:13;154.13;;;142.02;;
38226;SDS011;24026;49.446;8.576;2022-07-23T07:07:34;152.40;;;140.32;;
38226;SDS011;24026;49.446;8.576;2022-07-23T07:09:55;150.52;;;138.65;;
38226;SDS011;24026;49.446;8.576;2022-07-23T07:12:15;153.00;;;140.95;;
38226;SDS011;24026;49.446;8.576;2022-07-23T07:14:36;152.32;;;140.35;;
38226;SDS011;24026;49.446;8.576;2022-07-23T07:16:56;152.63;;;140.63;;
38226;SDS011;24026;49.446;8.576;2022-07-23T07:19:17;153.20;;;141.13;;
38226;SDS011;24026;49.446;8.576;2022-07-23T07:21:37;151.18;;;139.25;;
38226;SDS011;24026;49.446;8.576;2022-07-23T07:23:57;153.30;;;141.30;;
38226;SDS011;24026;49.446;8.576;2022-07-23T07:26:18;151.80;;;139.80;;
38226;SDS011;24026;49.446;8.576;2022-07-23T07:28:38;153.98;;;141.73;;
38226;SDS011;24026;49.446;8.576;2022-07-23T07:30:59;153.55;;;141.35;;
38226;SDS011;24026;49.446;8.576;2022-07-23T07:33:19;151.93;;;139.93;;
38226;SDS011;24026;49.446;8.576;2022-07-23T07:35:41;153.20;;;141.05;;
38226;SDS011;24026;49.446;8.576;2022-07-23T07:38:01;152.90;;;140.90;;
38226;SDS011;24026;49.446;8.576;2022-07-23T07:40:21;154.38;;;142.25;;
38226;SDS011;24026;49.446;8.576;2022-07-23T07:42:46;153.82;;;141.65;;
38226;SDS011;24026;49.446;8.576;2022-07-23T07:45:07;151.10;;;139.20;;
38226;SDS011;24026;49.446;8.576;2022-07-23T07:47:28;153.30;;;141.23;;
38226;SDS011;24026;49.446;8.576;2022-07-23T07:49:48;149.95;;;137.98;;
38226;SDS011;24026;49.446;8.576;2022-07-23T07:52:09;154.05;;;141.98;;
38226;SDS011;24026;49.446;8.576;2022-07-23T07:54:30;152.63;;;140.60;;
38226;SDS011;24026;49.446;8.576;2022-07-23T07:56:51;153.13;;;141.13;;
38226;SDS011;24026;49.446;8.576;2022-07-23T07:59:11;154.63;;;142.50;;
38226;SDS011;24026;49.446;8.576;2022-07-23T08:01:31;154.82;;;142.63;;
38226;SDS011;24026;49.446;8.576;2022-07-23T08:03:52;151.95;;;139.90;;
38226;SDS011;24026;49.446;8.576;2022-07-23T08:06:12;153.82;;;141.70;;
38226;SDS011;24026;49.446;8.576;2022-07-23T08:08:33;153.43;;;141.20;;
38226;SDS011;24026;49.446;8.576;2022-07-23T08:10:54;153.48;;;141.18;;
38226;SDS011;24026;49.446;8.576;2022-07-23T08:13:15;154.63;;;142.50;;
38226;SDS011;24026;49.446;8.576;2022-07-23T08:15:36;155.32;;;143.02;;
38226;SDS011;24026;49.446;8.576;2022-07-23T08:17:56;154.20;;;142.07;;
38226;SDS011;24026;49.446;8.576;2022-07-23T08:20:18;152.73;;;140.73;;
38226;SDS011;24026;49.446;8.576;2022-07-23T08:22:50;151.05;;;139.23;;
38226;SDS011;24026;49.446;8.576;2022-07-23T08:25:13;151.87;;;139.90;;
38226;SDS011;24026;49.446;8.576;2022-07-23T08:27:33;151.95;;;139.98;;
38226;SDS011;24026;49.446;8.576;2022-07-23T08:29:54;152.23;;;139.93;;
38226;SDS011;24026;49.446;8.576;2022-07-23T08:32:14;153.98;;;141.77;;
38226;SDS011;24026;49.446;8.576;2022-07-23T08:34:34;156.45;;;144.25;;
38226;SDS011;24026;49.446;8.576;2022-07-23T08:36:55;154.10;;;141.98;;
38226;SDS011;24026;49.446;8.576;2022-07-23T08:39:15;153.75;;;141.75;;
38226;SDS011;24026;49.446;8.576;2022-07-23T08:41:36;153.95;;;141.82;;
38226;SDS011;24026;49.446;8.576;2022-07-23T08:44:02;156.30;;;144.07;;
38226;SDS011;24026;49.446;8.576;2022-07-23T08:46:22;153.95;;;141.90;;
38226;SDS011;24026;49.446;8.576;2022-07-23T08:48:44;156.05;;;143.75;;
38226;SDS011;24026;49.446;8.576;2022-07-23T08:51:08;155.02;;;142.85;;
38226;SDS011;24026;49.446;8.576;2022-07-23T08:53:30;156.57;;;144.38;;
38226;SDS011;24026;49.446;8.576;2022-07-23T08:55:53;156.20;;;143.98;;
38226;SDS011;24026;49.446;8.576;2022-07-23T08:58:15;153.63;;;141.60;;
38226;SDS011;24026;49.446;8.576;2022-07-23T09:00:37;157.30;;;144.90;;
38226;SDS011;24026;49.446;8.576;2022-07-23T09:02:57;155.88;;;143.63;;
38226;SDS011;24026;49.446;8.576;2022-07-23T09:05:18;152.90;;;140.98;;
38226;SDS011;24026;49.446;8.576;2022-07-23T09:10:26;155.98;;;143.73;;
38226;SDS011;24026;49.446;8.576;2022-07-23T09:12:46;153.65;;;141.63;;
38226;SDS011;24026;49.446;8.576;2022-07-23T09:15:08;156.73;;;144.52;;
38226;SDS011;24026;49.446;8.576;2022-07-23T09:17:29;155.73;;;143.63;;
38226;SDS011;24026;49.446;8.576;2022-07-23T09:20:06;154.93;;;142.82;;
38226;SDS011;24026;49.446;8.576;2022-07-23T09:22:31;154.57;;;142.50;;
38226;SDS011;24026;49.446;8.576;2022-07-23T09:25:11;155.85;;;143.73;;
38226;SDS011;24026;49.446;8.576;2022-07-23T09:30:06;154.60;;;142.57;;
38226;SDS011;24026;49.446;8.576;2022-07-23T09:32:27;153.85;;;141.75;;
38226;SDS011;24026;49.446;8.576;2022-07-23T09:34:48;153.85;;;141.88;;
38226;SDS011;24026;49.446;8.576;2022-07-23T09:37:13;153.63;;;141.55;;
38226;SDS011;24026;49.446;8.576;2022-07-23T09:39:38;157.20;;;144.93;;
38226;SDS011;24026;49.446;8.576;2022-07-23T09:42:16;155.27;;;143.18;;
38226;SDS011;24026;49.446;8.576;2022-07-23T09:44:42;151.48;;;139.60;;
38226;SDS011;24026;49.446;8.576;2022-07-23T09:47:07;153.15;;;141.13;;
38226;SDS011;24026;49.446;8.576;2022-07-23T09:49:27;156.05;;;143.85;;
38226;SDS011;24026;49.446;8.576;2022-07-23T09:51:53;155.43;;;143.30;;
38226;SDS011;24026;49.446;8.576;2022-07-23T09:54:31;155.60;;;143.43;;
38226;SDS011;24026;49.446;8.576;2022-07-23T09:56:57;157.48;;;145.30;;
38226;SDS011;24026;49.446;8.576;2022-07-23T09:59:22;154.98;;;142.98;;
38226;SDS011;24026;49.446;8.576;2022-07-23T10:01:45;155.90;;;143.82;;
38226;SDS011;24026;49.446;8.576;2022-07-23T10:04:06;156.73;;;144.55;;
38226;SDS011;24026;49.446;8.576;2022-07-23T10:06:27;156.70;;;144.60;;
38226;SDS011;24026;49.446;8.576;2022-07-23T10:08:49;156.05;;;143.98;;
38226;SDS011;24026;49.446;8.576;2022-07-23T10:11:13;157.57;;;145.38;;
38226;SDS011;24026;49.446;8.576;2022-07-23T10:13:34;155.13;;;143.05;;
38226;SDS011;24026;49.446;8.576;2022-07-23T10:16:10;156.05;;;143.95;;
38226;SDS011;24026;49.446;8.576;2022-07-23T10:18:31;156.00;;;144.00;;
38226;SDS011;24026;49.446;8.576;2022-07-23T10:20:52;157.80;;;145.60;;
38226;SDS011;24026;49.446;8.576;2022-07-23T10:28:23;156.15;;;144.02;;
38226;SDS011;24026;49.446;8.576;2022-07-23T10:36:38;155.52;;;143.48;;
38226;SDS011;24026;49.446;8.576;2022-07-23T10:39:05;156.67;;;144.57;;
38226;SDS011;24026;49.446;8.576;2022-07-23T10:41:36;156.73;;;144.63;;
38226;SDS011;24026;49.446;8.576;2022-07-23T10:44:14;155.57;;;143.52;;
38226;SDS011;24026;49.446;8.576;2022-07-23T10:46:46;156.85;;;144.65;;
38226;SDS011;24026;49.446;8.576;2022-07-23T10:49:33;155.32;;;143.35;;
38226;SDS011;24026;49.446;8.576;2022-07-23T10:54:33;157.77;;;145.65;;
38226;SDS011;24026;49.446;8.576;2022-07-23T10:59:14;155.50;;;143.43;;
38226;SDS011;24026;49.446;8.576;2022-07-23T11:01:35;157.63;;;145.50;;
38226;SDS011;24026;49.446;8.576;2022-07-23T11:03:57;156.35;;;144.38;;
38226;SDS011;24026;49.446;8.576;2022-07-23T11:06:19;156.35;;;144.38;;
38226;SDS011;24026;49.446;8.576;2022-07-23T11:08:39;156.93;;;144.75;;
38226;SDS011;24026;49.446;8.576;2022-07-23T11:13:30;158.50;;;146.25;;
38226;SDS011;24026;49.446;8.576;2022-07-23T11:18:51;157.18;;;145.07;;
38226;SDS011;24026;49.446;8.576;2022-07-23T11:21:31;157.60;;;145.30;;
38226;SDS011;24026;49.446;8.576;2022-07-23T11:24:07;157.60;;;145.35;;
38226;SDS011;24026;49.446;8.576;2022-07-23T11:29:33;159.10;;;146.90;;
38226;SDS011;24026;49.446;8.576;2022-07-23T11:32:03;157.40;;;145.23;;
38226;SDS011;24026;49.446;8.576;2022-07-23T11:34:32;158.73;;;146.43;;
38226;SDS011;24026;49.446;8.576;2022-07-23T11:36:54;160.93;;;148.45;;
38226;SDS011;24026;49.446;8.576;2022-07-23T11:39:15;159.35;;;147.15;;
38226;SDS011;24026;49.446;8.576;2022-07-23T11:41:46;159.43;;;147.23;;
38226;SDS011;24026;49.446;8.576;2022-07-23T11:44:23;159.82;;;147.57;;
38226;SDS011;24026;49.446;8.576;2022-07-23T11:46:56;160.55;;;148.30;;
38226;SDS011;24026;49.446;8.576;2022-07-23T11:49:20;157.82;;;145.75;;
38226;SDS011;24026;49.446;8.576;2022-07-23T11:51:40;161.45;;;149.20;;
38226;SDS011;24026;49.446;8.576;2022-07-23T11:54:05;161.40;;;149.05;;
38226;SDS011;24026;49.446;8.576;2022-07-23T11:56:26;159.80;;;147.63;;
38226;SDS011;24026;49.446;8.576;2022-07-23T11:58:56;161.95;;;149.57;;
38226;SDS011;24026;49.446;8.576;2022-07-23T12:01:18;160.40;;;148.20;;
38226;SDS011;24026;49.446;8.576;2022-07-23T12:03:48;160.10;;;147.80;;
38226;SDS011;24026;49.446;8.576;2022-07-23T12:06:09;158.10;;;145.98;;
38226;SDS011;24026;49.446;8.576;2022-07-23T12:08:30;159.40;;;147.27;;
38226;SDS011;24026;49.446;8.576;2022-07-23T12:10:50;161.40;;;149.10;;
38226;SDS011;24026;49.446;8.576;2022-07-23T12:13:12;160.07;;;147.90;;
38226;SDS011;24026;49.446;8.576;2022-07-23T12:15:36;159.20;;;147.00;;
38226;SDS011;24026;49.446;8.576;2022-07-23T12:18:00;160.70;;;148.52;;
38226;SDS011;24026;49.446;8.576;2022-07-23T12:20:23;161.27;;;149.02;;
38226;SDS011;24026;49.446;8.576;2022-07-23T12:22:46;160.40;;;148.20;;
38226;SDS011;24026;49.446;8.576;2022-07-23T12:25:16;160.55;;;148.38;;
38226;SDS011;24026;49.446;8.576;2022-07-23T12:27:38;158.90;;;146.80;;
38226;SDS011;24026;49.446;8.576;2022-07-23T12:30:14;161.38;;;149.07;;
38226;SDS011;24026;49.446;8.576;2022-07-23T12:32:35;158.27;;;146.18;;
38226;SDS011;24026;49.446;8.576;2022-07-23T12:35:05;159.52;;;147.35;;
38226;SDS011;24026;49.446;8.576;2022-07-23T12:37:27;161.88;;;149.48;;
38226;SDS011;24026;49.446;8.576;2022-07-23T12:39:49;160.98;;;148.68;;
38226;SDS011;24026;49.446;8.576;2022-07-23T12:42:11;160.65;;;148.43;;
38226;SDS011;24026;49.446;8.576;2022-07-23T12:44:31;160.50;;;148.20;;
38226;SDS011;24026;49.446;8.576;2022-07-23T12:46:52;159.80;;;147.73;;
38226;SDS011;24026;49.446;8.576;2022-07-23T12:49:12;162.10;;;149.60;;
38226;SDS011;24026;49.446;8.576;2022-07-23T12:51:45;158.00;;;145.98;;
38226;SDS011;24026;49.446;8.576;2022-07-23T12:54:09;161.35;;;149.05;;
38226;SDS011;24026;49.446;8.576;2022-07-23T12:58:52;157.00;;;144.75;;
38226;SDS011;24026;49.446;8.576;2022-07-23T13:03:40;160.27;;;148.02;;
38226;SDS011;24026;49.446;8.576;2022-07-23T13:06:02;161.35;;;149.15;;
38226;SDS011;24026;49.446;8.576;2022-07-23T13:08:24;160.85;;;148.55;;
38226;SDS011;24026;49.446;8.576;2022-07-23T13:10:46;161.57;;;149.30;;
38226;SDS011;24026;49.446;8.576;2022-07-23T13:13:11;160.27;;;148.05;;
38226;SDS011;24026;49.446;8.576;2022-07-23T13:15:32;158.45;;;146.32;;
38226;SDS011;24026;49.446;8.576;2022-07-23T13:17:52;162.13;;;149.85;;
38226;SDS011;24026;49.446;8.576;2022-07-23T13:20:13;159.70;;;147.48;;
38226;SDS011;24026;49.446;8.576;2022-07-23T13:22:33;161.60;;;149.27;;
38226;SDS011;24026;49.446;8.576;2022-07-23T13:24:54;160.05;;;147.88;;
38226;SDS011;24026;49.446;8.576;2022-07-23T13:27:14;160.10;;;147.82;;
38226;SDS011;24026;49.446;8.576;2022-07-23T13:29:34;158.98;;;146.75;;
38226;SDS011;24026;49.446;8.576;2022-07-23T13:31:55;160.45;;;148.18;;
38226;SDS011;24026;49.446;8.576;2022-07-23T13:34:15;162.20;;;149.82;;
38226;SDS011;24026;49.446;8.576;2022-07-23T13:36:36;160.65;;;148.45;;
38226;SDS011;24026;49.446;8.576;2022-07-23T13:38:56;160.50;;;148.30;;
38226;SDS011;24026;49.446;8.576;2022-07-23T13:41:17;160.30;;;147.90;;
38226;SDS011;24026;49.446;8.576;2022-07-23T13:43:38;160.48;;;148.20;;
38226;SDS011;24026;49.446;8.576;2022-07-23T13:45:59;159.05;;;146.95;;
38226;SDS011;24026;49.446;8.576;2022-07-23T13:48:19;159.48;;;147.27;;
38226;SDS011;24026;49.446;8.576;2022-07-23T13:50:40;162.50;;;150.20;;
38226;SDS011;24026;49.446;8.576;2022-07-23T13:53:06;161.52;;;149.32;;
38226;SDS011;24026;49.446;8.576;2022-07-23T13:55:37;161.43;;;149.07;;
38226;SDS011;24026;49.446;8.576;2022-07-23T13:57:58;160.23;;;147.90;;
38226;SDS011;24026;49.446;8.576;2022-07-23T14:00:19;159.05;;;146.75;;